createdAt,value
2022-09-29T00:00:56.588Z,8.20
2022-09-29T00:03:24.935Z,8.20
2022-09-29T00:05:56.546Z,8.10
2022-09-29T00:08:26.028Z,8.10
2022-09-29T00:10:54.471Z,8.10
2022-09-29T00:13:22.505Z,8.00
2022-09-29T00:15:57.731Z,8.00
2022-09-29T00:18:25.862Z,8.00
2022-09-29T00:21:06.095Z,7.90
2022-09-29T00:23:35.441Z,7.90
2022-09-29T00:26:06.035Z,7.90
2022-09-29T00:28:35.506Z,7.90
2022-09-29T00:31:05.517Z,7.90
2022-09-29T00:33:34.670Z,7.80
2022-09-29T00:36:06.565Z,7.80
2022-09-29T00:38:35.346Z,7.90
2022-09-29T00:41:04.118Z,7.90
2022-09-29T00:43:54.484Z,7.80
2022-09-29T00:46:29.732Z,7.80
2022-09-29T00:49:03.314Z,7.80
2022-09-29T00:51:34.502Z,7.80
2022-09-29T00:54:03.694Z,7.80
2022-09-29T00:56:33.086Z,7.70
2022-09-29T00:59:03.837Z,7.70
2022-09-29T01:01:33.158Z,7.70
2022-09-29T01:04:04.417Z,7.80
2022-09-29T01:06:37.425Z,7.70
2022-09-29T01:09:07.728Z,7.70
2022-09-29T01:11:36.822Z,7.70
2022-09-29T01:14:08.657Z,7.60
2022-09-29T01:16:39.860Z,7.60
2022-09-29T01:19:10.899Z,7.60
2022-09-29T01:21:51.202Z,7.60
2022-09-29T01:24:59.521Z,7.60
2022-09-29T01:27:53.124Z,7.50
2022-09-29T01:30:22.673Z,7.50
2022-09-29T01:33:04.651Z,7.50
2022-09-29T01:35:41.197Z,7.50
2022-09-29T01:38:23.318Z,7.50
2022-09-29T01:41:01.335Z,7.50
2022-09-29T01:43:34.540Z,7.40
2022-09-29T01:46:06.100Z,7.50
2022-09-29T01:48:40.025Z,7.40
2022-09-29T01:51:14.437Z,7.40
2022-09-29T01:53:46.957Z,7.40
2022-09-29T01:56:21.863Z,7.40
2022-09-29T01:58:55.754Z,7.40
2022-09-29T02:01:29.297Z,7.40
2022-09-29T02:04:03.489Z,7.40
2022-09-29T02:06:37.438Z,7.30
2022-09-29T02:09:10.222Z,7.30
2022-09-29T02:11:42.405Z,7.40
2022-09-29T02:14:16.874Z,7.30
2022-09-29T02:16:49.033Z,7.30
2022-09-29T02:19:20.871Z,7.30
2022-09-29T02:21:49.059Z,7.30
2022-09-29T02:24:17.220Z,7.20
2022-09-29T02:26:45.617Z,7.20
2022-09-29T02:29:14.607Z,7.20
2022-09-29T02:31:42.873Z,7.20
2022-09-29T02:34:14.162Z,7.20
2022-09-29T02:36:52.918Z,7.20
2022-09-29T02:39:34.138Z,7.20
2022-09-29T02:42:08.644Z,7.20
2022-09-29T02:44:53.639Z,7.20
2022-09-29T02:47:36.057Z,7.10
2022-09-29T02:50:32.337Z,7.10
2022-09-29T02:53:09.466Z,7.10
2022-09-29T02:55:45.566Z,7.10
2022-09-29T02:58:19.605Z,7.10
2022-09-29T03:00:48.711Z,7.00
2022-09-29T03:03:17.146Z,7.00
2022-09-29T03:05:45.210Z,7.10
2022-09-29T03:08:14.567Z,7.10
2022-09-29T03:10:42.566Z,7.00
2022-09-29T03:13:10.668Z,7.00
2022-09-29T03:15:38.684Z,7.00
2022-09-29T03:18:10.125Z,7.00
2022-09-29T03:20:38.459Z,7.00
2022-09-29T03:23:06.574Z,7.00
2022-09-29T03:25:36.183Z,6.90
2022-09-29T03:28:04.202Z,7.00
2022-09-29T03:30:32.231Z,6.90
2022-09-29T03:33:00.242Z,6.90
2022-09-29T03:35:28.290Z,6.90
2022-09-29T03:37:59.784Z,6.90
2022-09-29T03:40:28.229Z,6.90
2022-09-29T03:42:57.614Z,6.90
2022-09-29T03:45:25.673Z,6.90
2022-09-29T03:47:53.774Z,6.80
2022-09-29T03:50:21.806Z,6.80
2022-09-29T03:52:49.817Z,6.80
2022-09-29T03:55:17.986Z,6.80
2022-09-29T03:57:47.172Z,6.80
2022-09-29T04:00:17.313Z,6.80
2022-09-29T04:02:45.305Z,6.80
2022-09-29T04:05:13.365Z,6.80
2022-09-29T04:07:41.418Z,6.80
2022-09-29T04:10:10.191Z,6.80
2022-09-29T04:12:38.177Z,6.80
2022-09-29T04:15:07.227Z,6.80
2022-09-29T04:17:36.578Z,6.80
2022-09-29T04:20:04.938Z,6.80
2022-09-29T04:22:32.954Z,6.80
2022-09-29T04:25:00.990Z,6.80
2022-09-29T04:27:29.026Z,6.80
2022-09-29T04:29:57.022Z,6.90
2022-09-29T04:32:25.201Z,6.90
2022-09-29T04:34:54.612Z,6.90
2022-09-29T04:37:22.671Z,7.00
2022-09-29T04:39:50.798Z,7.00
2022-09-29T04:42:18.809Z,7.00
2022-09-29T04:44:47.266Z,7.00
2022-09-29T04:47:15.542Z,7.00
2022-09-29T04:49:43.538Z,7.00
2022-09-29T04:52:14.182Z,6.90
2022-09-29T04:54:42.524Z,7.00
2022-09-29T04:57:11.554Z,6.90
2022-09-29T04:59:39.555Z,7.00
2022-09-29T05:02:07.684Z,6.90
2022-09-29T05:04:35.721Z,7.00
2022-09-29T05:07:03.988Z,7.00
2022-09-29T05:09:34.141Z,7.00
2022-09-29T05:12:02.628Z,7.00
2022-09-29T05:14:30.654Z,7.00
2022-09-29T05:16:59.554Z,7.00
2022-09-29T05:19:27.542Z,7.00
2022-09-29T05:21:55.527Z,7.00
2022-09-29T05:24:23.603Z,7.00
2022-09-29T05:26:58.185Z,7.00
2022-09-29T05:29:26.734Z,7.00
2022-09-29T05:31:54.910Z,7.10
2022-09-29T05:34:22.973Z,7.10
2022-09-29T05:36:51.092Z,7.20
2022-09-29T05:39:21.042Z,7.10
2022-09-29T05:41:50.301Z,7.10
2022-09-29T05:44:19.674Z,7.10
2022-09-29T05:46:48.173Z,7.10
2022-09-29T05:49:18.574Z,7.10
2022-09-29T05:51:46.829Z,7.10
2022-09-29T05:54:14.813Z,7.20
2022-09-29T05:56:45.326Z,7.10
2022-09-29T05:59:13.868Z,7.20
2022-09-29T06:01:43.542Z,7.20
2022-09-29T06:04:11.611Z,7.20
2022-09-29T06:06:40.271Z,7.20
2022-09-29T06:09:08.695Z,7.20
2022-09-29T06:11:36.734Z,7.30
2022-09-29T06:14:04.765Z,7.30
2022-09-29T06:16:34.023Z,7.40
2022-09-29T06:19:03.967Z,7.40
2022-09-29T06:21:33.913Z,7.40
2022-09-29T06:24:02.252Z,7.40
2022-09-29T06:26:31.131Z,7.50
2022-09-29T06:28:59.517Z,7.50
2022-09-29T06:31:29.765Z,7.60
2022-09-29T06:33:59.686Z,7.60
2022-09-29T06:36:50.794Z,7.60
2022-09-29T06:39:18.903Z,7.60
2022-09-29T06:41:48.626Z,7.70
2022-09-29T06:44:16.902Z,7.70
2022-09-29T06:46:44.920Z,7.70
2022-09-29T06:49:13.434Z,7.70
2022-09-29T06:51:46.300Z,7.80
2022-09-29T06:54:15.998Z,7.80
2022-09-29T06:56:44.089Z,7.90
2022-09-29T06:59:12.179Z,8.00
2022-09-29T07:01:40.393Z,8.00
2022-09-29T07:04:08.496Z,8.00
2022-09-29T07:06:37.015Z,8.10
2022-09-29T07:09:06.484Z,8.10
2022-09-29T07:11:34.458Z,8.20
2022-09-29T07:14:02.639Z,8.20
2022-09-29T07:16:30.652Z,8.20
2022-09-29T07:18:58.680Z,8.30
2022-09-29T07:21:26.693Z,8.40
2022-09-29T07:23:57.607Z,8.40
2022-09-29T07:26:29.904Z,8.40
2022-09-29T07:28:58.354Z,8.50
2022-09-29T07:31:26.479Z,8.50
2022-09-29T07:33:54.578Z,8.60
2022-09-29T07:36:22.711Z,8.60
2022-09-29T07:38:52.250Z,8.70
2022-09-29T07:41:22.719Z,8.70
2022-09-29T07:43:53.466Z,8.80
2022-09-29T07:46:22.045Z,8.90
2022-09-29T07:48:50.349Z,8.90
2022-09-29T07:51:20.360Z,9.00
2022-09-29T07:53:49.027Z,9.00
2022-09-29T07:56:19.101Z,9.10
2022-09-29T07:58:47.565Z,9.00
2022-09-29T08:01:18.084Z,9.10
2022-09-29T08:03:51.138Z,9.10
2022-09-29T08:06:19.861Z,9.20
2022-09-29T08:09:00.169Z,9.20
2022-09-29T08:11:32.433Z,9.30
2022-09-29T08:14:01.381Z,9.40
2022-09-29T08:16:31.167Z,9.40
2022-09-29T08:18:59.875Z,9.40
2022-09-29T08:21:28.010Z,9.40
2022-09-29T08:23:56.111Z,9.50
2022-09-29T08:26:38.516Z,9.60
2022-09-29T08:29:09.348Z,9.60
2022-09-29T08:31:39.098Z,9.70
2022-09-29T08:34:07.995Z,9.80
2022-09-29T08:36:36.571Z,9.80
2022-09-29T08:39:05.595Z,9.90
2022-09-29T08:41:50.483Z,10.00
2022-09-29T08:44:35.782Z,10.00
2022-09-29T08:47:15.350Z,10.10
2022-09-29T08:49:47.883Z,10.20
2022-09-29T08:52:19.914Z,10.40
2022-09-29T08:54:50.555Z,10.50
2022-09-29T08:57:20.937Z,10.50
2022-09-29T08:59:54.450Z,10.70
2022-09-29T09:02:56.994Z,10.70
2022-09-29T09:05:59.545Z,10.80
2022-09-29T09:08:50.999Z,10.90
2022-09-29T09:11:34.853Z,11.00
2022-09-29T09:14:16.584Z,11.20
2022-09-29T09:16:55.250Z,11.40
2022-09-29T09:19:45.164Z,11.70
2022-09-29T09:22:23.383Z,11.90
2022-09-29T09:24:58.922Z,12.10
2022-09-29T09:27:29.805Z,12.20
2022-09-29T09:30:06.771Z,12.30
2022-09-29T09:32:40.574Z,12.40
2022-09-29T09:35:25.612Z,12.50
2022-09-29T09:37:56.002Z,12.50
2022-09-29T09:40:29.624Z,12.50
2022-09-29T09:43:04.689Z,12.40
2022-09-29T09:45:36.977Z,12.30
2022-09-29T09:48:13.829Z,12.30
2022-09-29T09:50:43.960Z,12.30
2022-09-29T09:53:16.798Z,12.30
2022-09-29T09:55:45.510Z,12.40
2022-09-29T09:58:40.424Z,12.40
2022-09-29T10:01:12.301Z,12.40
2022-09-29T10:03:40.442Z,12.50
2022-09-29T10:06:09.989Z,12.50
2022-09-29T10:08:42.268Z,12.60
2022-09-29T10:11:23.298Z,12.60
2022-09-29T10:13:59.377Z,12.50
2022-09-29T10:16:34.163Z,12.50
2022-09-29T10:19:02.438Z,12.60
2022-09-29T10:21:40.478Z,12.60
2022-09-29T10:24:23.893Z,12.60
2022-09-29T10:26:55.181Z,12.70
2022-09-29T10:29:29.466Z,12.70
2022-09-29T10:32:05.559Z,12.70
2022-09-29T10:34:35.426Z,12.70
2022-09-29T10:37:07.345Z,12.70
2022-09-29T10:39:42.862Z,12.70
2022-09-29T10:42:25.077Z,12.70
2022-09-29T10:44:55.430Z,12.70
2022-09-29T10:47:24.825Z,12.70
2022-09-29T10:50:13.303Z,12.60
2022-09-29T10:52:45.992Z,12.70
2022-09-29T10:55:22.489Z,12.70
2022-09-29T10:57:51.182Z,12.60
2022-09-29T11:00:32.448Z,12.60
2022-09-29T11:03:10.174Z,12.60
2022-09-29T11:05:39.106Z,12.70
2022-09-29T11:08:14.033Z,12.70
2022-09-29T11:10:43.478Z,12.70
2022-09-29T11:13:36.144Z,12.60
2022-09-29T11:16:15.481Z,12.70
2022-09-29T11:18:46.016Z,12.80
2022-09-29T11:21:46.910Z,12.90
2022-09-29T11:24:26.446Z,12.90
2022-09-29T11:26:59.681Z,12.90
2022-09-29T11:29:37.056Z,12.90
2022-09-29T11:32:23.525Z,12.90
2022-09-29T11:35:06.015Z,13.00
2022-09-29T11:37:46.437Z,13.00
2022-09-29T11:40:25.560Z,13.10
2022-09-29T11:43:22.974Z,13.20
2022-09-29T11:46:01.441Z,13.20
2022-09-29T11:48:54.343Z,13.20
2022-09-29T11:51:34.309Z,13.20
2022-09-29T11:54:22.221Z,13.20
2022-09-29T11:57:00.068Z,13.30
2022-09-29T11:59:52.838Z,13.20
2022-09-29T12:03:01.141Z,13.20
2022-09-29T12:05:40.081Z,13.20
2022-09-29T12:08:19.491Z,13.20
2022-09-29T12:10:56.770Z,13.20
2022-09-29T12:13:38.169Z,13.20
2022-09-29T12:16:12.199Z,13.30
2022-09-29T12:18:46.273Z,13.40
2022-09-29T12:21:17.779Z,13.60
2022-09-29T12:23:47.513Z,13.60
2022-09-29T12:26:19.034Z,13.70
2022-09-29T12:28:52.402Z,13.60
2022-09-29T12:31:26.688Z,13.60
2022-09-29T12:33:58.719Z,13.60
2022-09-29T12:36:53.639Z,13.60
2022-09-29T12:39:31.587Z,13.70
2022-09-29T12:42:13.692Z,13.70
2022-09-29T12:44:48.085Z,13.60
2022-09-29T12:47:30.938Z,13.60
2022-09-29T12:50:06.523Z,13.60
2022-09-29T12:52:41.837Z,13.60
2022-09-29T12:55:20.437Z,13.60
2022-09-29T12:57:50.827Z,13.50
2022-09-29T13:00:20.374Z,13.50
2022-09-29T13:03:03.235Z,13.40
2022-09-29T13:06:01.987Z,13.40
2022-09-29T13:08:58.870Z,13.40
2022-09-29T13:11:56.459Z,13.40
2022-09-29T13:14:45.946Z,13.40
2022-09-29T13:17:27.259Z,13.50
2022-09-29T13:20:12.074Z,13.40
2022-09-29T13:23:17.998Z,13.40
2022-09-29T13:25:55.818Z,13.40
2022-09-29T13:28:30.922Z,13.40
2022-09-29T13:31:03.606Z,13.50
2022-09-29T13:33:34.354Z,13.50
2022-09-29T13:36:03.249Z,13.50
2022-09-29T13:38:34.746Z,13.40
2022-09-29T13:41:16.203Z,13.30
2022-09-29T13:44:04.260Z,13.20
2022-09-29T13:46:39.860Z,13.20
2022-09-29T13:49:29.577Z,13.10
2022-09-29T13:52:03.598Z,13.10
2022-09-29T13:54:40.341Z,13.00
2022-09-29T13:57:28.284Z,13.00
2022-09-29T14:00:20.172Z,12.90
2022-09-29T14:03:01.008Z,12.80
2022-09-29T14:05:56.079Z,12.80
2022-09-29T14:08:28.727Z,12.60
2022-09-29T14:11:07.094Z,12.50
2022-09-29T14:13:44.732Z,12.50
2022-09-29T14:16:24.056Z,12.40
2022-09-29T14:18:58.233Z,12.40
2022-09-29T14:21:51.405Z,12.50
2022-09-29T14:24:47.039Z,12.40
2022-09-29T14:27:38.580Z,12.40
2022-09-29T14:30:17.470Z,12.40
2022-09-29T14:32:53.006Z,12.40
2022-09-29T14:35:26.374Z,12.40
2022-09-29T14:38:01.950Z,12.40
2022-09-29T14:40:29.990Z,12.50
2022-09-29T14:43:06.392Z,12.50
2022-09-29T14:46:16.890Z,12.50
2022-09-29T14:49:13.410Z,12.50
2022-09-29T14:52:00.808Z,12.60
2022-09-29T14:54:42.487Z,12.60
2022-09-29T14:57:37.992Z,12.60
2022-09-29T15:00:13.210Z,12.60
2022-09-29T15:02:45.509Z,12.60
2022-09-29T15:05:17.673Z,12.60
2022-09-29T15:07:45.742Z,12.50
2022-09-29T15:10:40.479Z,12.60
2022-09-29T15:13:23.438Z,12.50
2022-09-29T15:15:55.922Z,12.50
2022-09-29T15:18:40.135Z,12.50
2022-09-29T15:21:16.071Z,12.50
2022-09-29T15:24:08.190Z,12.50
2022-09-29T15:26:38.292Z,12.50
2022-09-29T15:29:09.114Z,12.50
2022-09-29T15:31:37.533Z,12.50
2022-09-29T15:34:06.251Z,12.50
2022-09-29T15:36:37.418Z,12.40
2022-09-29T15:39:08.075Z,12.40
2022-09-29T15:41:37.475Z,12.40
2022-09-29T15:44:18.555Z,12.40
2022-09-29T15:46:50.110Z,12.40
2022-09-29T15:49:20.075Z,12.40
2022-09-29T15:51:58.336Z,12.40
2022-09-29T15:54:27.745Z,12.30
2022-09-29T15:57:14.779Z,12.30
2022-09-29T15:59:50.372Z,12.30
2022-09-29T16:02:29.555Z,12.30
2022-09-29T16:05:01.383Z,12.30
2022-09-29T16:07:32.646Z,12.30
2022-09-29T16:10:04.654Z,12.20
2022-09-29T16:12:38.777Z,12.20
2022-09-29T16:15:07.974Z,12.20
2022-09-29T16:17:36.127Z,12.20
2022-09-29T16:20:04.602Z,12.10
2022-09-29T16:22:33.057Z,12.20
2022-09-29T16:25:11.618Z,12.20
2022-09-29T16:27:47.649Z,12.20
2022-09-29T16:30:25.477Z,12.10
2022-09-29T16:32:57.170Z,12.10
2022-09-29T16:35:43.294Z,12.10
2022-09-29T16:38:19.113Z,12.00
2022-09-29T16:40:48.055Z,12.00
2022-09-29T16:43:24.422Z,12.00
2022-09-29T16:45:53.999Z,11.90
2022-09-29T16:48:22.461Z,12.00
2022-09-29T16:50:54.115Z,11.90
2022-09-29T16:53:27.795Z,11.90
2022-09-29T16:56:00.741Z,11.80
2022-09-29T16:58:31.716Z,11.80
2022-09-29T17:00:59.781Z,11.80
2022-09-29T17:03:28.918Z,11.80
2022-09-29T17:05:57.096Z,11.80
2022-09-29T17:08:26.751Z,11.80
2022-09-29T17:10:56.973Z,11.80
2022-09-29T17:13:25.788Z,11.80
2022-09-29T17:15:55.272Z,11.70
2022-09-29T17:18:25.099Z,11.80
2022-09-29T17:20:53.080Z,11.70
2022-09-29T17:23:21.143Z,11.80
2022-09-29T17:25:49.537Z,11.80
2022-09-29T17:28:18.692Z,11.70
2022-09-29T17:30:48.425Z,11.70
2022-09-29T17:33:19.457Z,11.80
2022-09-29T17:35:55.195Z,11.70
2022-09-29T17:38:25.653Z,11.70
2022-09-29T17:40:57.706Z,11.60
2022-09-29T17:43:25.750Z,11.70
2022-09-29T17:45:58.571Z,11.70
2022-09-29T17:48:28.417Z,11.60
2022-09-29T17:50:59.007Z,11.60
2022-09-29T17:53:27.530Z,11.60
2022-09-29T17:55:58.199Z,11.50
2022-09-29T17:58:26.373Z,11.50
2022-09-29T18:00:57.346Z,11.50
2022-09-29T18:03:29.237Z,11.50
2022-09-29T18:05:58.708Z,11.60
2022-09-29T18:08:29.292Z,11.50
2022-09-29T18:10:58.516Z,11.50
2022-09-29T18:13:28.287Z,11.60
2022-09-29T18:15:56.585Z,11.50
2022-09-29T18:18:24.922Z,11.40
2022-09-29T18:20:54.409Z,11.40
2022-09-29T18:23:23.090Z,11.40
2022-09-29T18:25:53.108Z,11.50
2022-09-29T18:28:21.111Z,11.40
2022-09-29T18:30:52.108Z,11.40
2022-09-29T18:33:21.451Z,11.40
2022-09-29T18:35:54.925Z,11.30
2022-09-29T18:38:23.027Z,11.40
2022-09-29T18:40:54.025Z,11.20
2022-09-29T18:43:25.905Z,11.30
2022-09-29T18:45:54.985Z,11.30
2022-09-29T18:48:26.331Z,11.30
2022-09-29T18:50:56.642Z,11.30
2022-09-29T18:53:25.043Z,11.40
2022-09-29T18:55:58.261Z,11.20
2022-09-29T18:58:26.355Z,11.20
2022-09-29T19:00:56.142Z,11.20
2022-09-29T19:03:26.221Z,11.20
2022-09-29T19:05:56.691Z,11.20
2022-09-29T19:08:24.980Z,11.10
2022-09-29T19:10:55.161Z,11.10
2022-09-29T19:13:23.928Z,11.10
2022-09-29T19:15:56.372Z,11.00
2022-09-29T19:18:25.290Z,11.10
2022-09-29T19:20:56.148Z,11.10
2022-09-29T19:23:25.455Z,11.10
2022-09-29T19:25:55.050Z,11.10
2022-09-29T19:28:26.934Z,11.00
2022-09-29T19:30:56.007Z,11.00
2022-09-29T19:33:24.514Z,11.00
2022-09-29T19:35:55.905Z,10.90
2022-09-29T19:38:24.548Z,11.00
2022-09-29T19:40:52.551Z,11.10
2022-09-29T19:43:23.002Z,11.00
2022-09-29T19:45:51.164Z,11.10
2022-09-29T19:48:22.325Z,11.00
2022-09-29T19:51:16.476Z,10.90
2022-09-29T19:53:47.367Z,10.90
2022-09-29T19:56:18.218Z,10.90
2022-09-29T19:58:46.213Z,10.80
2022-09-29T20:01:14.257Z,10.90
2022-09-29T20:03:43.412Z,10.80
2022-09-29T20:06:12.832Z,10.90
2022-09-29T20:08:41.139Z,10.90
2022-09-29T20:11:11.181Z,10.80
2022-09-29T20:13:39.415Z,10.80
2022-09-29T20:16:08.328Z,10.80
2022-09-29T20:18:38.187Z,10.70
2022-09-29T20:21:07.409Z,10.80
2022-09-29T20:23:38.741Z,10.90
2022-09-29T20:26:08.859Z,10.90
2022-09-29T20:28:37.405Z,10.90
2022-09-29T20:31:07.550Z,10.80
2022-09-29T20:33:36.613Z,10.80
2022-09-29T20:36:05.155Z,10.90
2022-09-29T20:38:35.813Z,10.80
2022-09-29T20:41:05.578Z,10.90
2022-09-29T20:43:34.706Z,10.90
2022-09-29T20:46:05.453Z,10.90
2022-09-29T20:48:34.549Z,10.90
2022-09-29T20:51:04.224Z,10.90
2022-09-29T20:53:33.979Z,10.90
2022-09-29T20:56:02.974Z,10.90
2022-09-29T20:58:33.289Z,10.80
2022-09-29T21:01:15.577Z,10.90
2022-09-29T21:03:43.874Z,10.80
2022-09-29T21:06:12.094Z,10.80
2022-09-29T21:08:41.482Z,10.80
2022-09-29T21:11:10.034Z,10.80
2022-09-29T21:13:39.875Z,10.80
2022-09-29T21:16:08.282Z,10.90
2022-09-29T21:18:36.507Z,10.80
2022-09-29T21:21:08.177Z,10.90
2022-09-29T21:23:38.286Z,10.80
2022-09-29T21:26:13.909Z,10.90
2022-09-29T21:28:45.022Z,10.80
2022-09-29T21:31:14.754Z,10.80
2022-09-29T21:33:43.523Z,10.90
2022-09-29T21:36:14.098Z,10.80
2022-09-29T21:38:43.261Z,10.80
2022-09-29T21:41:17.376Z,10.80
2022-09-29T21:43:47.402Z,10.80
2022-09-29T21:46:17.325Z,10.80
2022-09-29T21:48:46.731Z,10.80
2022-09-29T21:51:16.953Z,10.80
2022-09-29T21:53:45.607Z,10.80
2022-09-29T21:56:16.135Z,10.80
2022-09-29T21:58:45.910Z,10.80
2022-09-29T22:01:15.302Z,10.80
2022-09-29T22:03:44.951Z,10.80
2022-09-29T22:06:14.973Z,10.80
2022-09-29T22:08:43.753Z,10.80
2022-09-29T22:11:13.137Z,10.80
2022-09-29T22:13:42.670Z,10.80
2022-09-29T22:16:13.206Z,10.80
2022-09-29T22:18:43.111Z,10.80
2022-09-29T22:21:13.574Z,10.90
2022-09-29T22:23:41.767Z,10.90
2022-09-29T22:26:12.798Z,10.90
2022-09-29T22:28:40.934Z,10.80
2022-09-29T22:31:10.129Z,10.90
2022-09-29T22:33:39.496Z,10.90
2022-09-29T22:36:09.638Z,10.90
2022-09-29T22:38:42.345Z,10.90
2022-09-29T22:41:12.167Z,10.90
2022-09-29T22:43:40.338Z,10.80
2022-09-29T22:46:09.320Z,10.90
2022-09-29T22:48:37.395Z,10.80
2022-09-29T22:51:06.010Z,10.70
2022-09-29T22:53:35.391Z,10.70
2022-09-29T22:56:10.451Z,10.70
2022-09-29T22:58:38.531Z,10.70
2022-09-29T23:01:08.217Z,10.70
2022-09-29T23:03:36.756Z,10.70
2022-09-29T23:06:06.352Z,10.60
2022-09-29T23:08:36.905Z,10.70
2022-09-29T23:11:07.843Z,10.60
2022-09-29T23:13:37.710Z,10.60
2022-09-29T23:16:12.658Z,10.60
2022-09-29T23:18:44.060Z,10.60
2022-09-29T23:21:14.029Z,10.60
2022-09-29T23:23:43.605Z,10.50
2022-09-29T23:26:11.866Z,10.50
2022-09-29T23:28:39.886Z,10.40
2022-09-29T23:31:09.474Z,10.40
2022-09-29T23:33:37.760Z,10.40
2022-09-29T23:36:07.755Z,10.30
2022-09-29T23:38:53.424Z,10.30
2022-09-29T23:41:24.153Z,10.40
2022-09-29T23:43:52.150Z,10.30
2022-09-29T23:46:20.181Z,10.30
2022-09-29T23:48:48.190Z,10.30
2022-09-29T23:51:16.189Z,10.20
2022-09-29T23:53:44.185Z,10.20
2022-09-29T23:56:12.194Z,10.10
2022-09-29T23:58:41.608Z,10.10
